Time;durP1;ratioP1;P1;durP2;ratioP2;P2;SDS_P1;SDS_P2;PMS_P1;PMS_P2;Temp;Humidity;BMP_temperature;BMP_pressure;BME280_temperature;BME280_humidity;BME280_pressure;Samples;Min_cycle;Max_cycle;Signal;HPM_P1;HPM_P2
2022/12/01 00:00:54;;;;;;;15.70;9.87;;;;;;;-143.84;100.00;45224.25;5112150;28;20446;-74
2022/12/01 00:03:22;;;;;;;15.20;10.83;;;;;;;-143.84;100.00;45247.09;5112033;28;20488;-74
2022/12/01 00:05:58;;;;;;;19.20;11.90;;;;;;;-143.84;100.00;45186.16;5111803;28;20481;-74
2022/12/01 00:08:25;;;;;;;14.83;9.87;;;;;;;-143.84;100.00;45184.25;5112021;28;20439;-74
2022/12/01 00:10:52;;;;;;;16.77;11.57;;;;;;;-143.84;100.00;45203.31;5112289;28;20439;-74
2022/12/01 00:13:19;;;;;;;18.07;11.70;;;;;;;-143.84;100.00;45207.13;5111750;28;20868;-74
2022/12/01 00:15:47;;;;;;;13.60;10.37;;;;;;;-143.84;100.00;45184.25;5111912;28;20496;-74
2022/12/01 00:18:14;;;;;;;16.03;11.57;;;;;;;-143.84;100.00;45199.50;5111620;28;20480;-74
2022/12/01 00:20:41;;;;;;;17.60;11.20;;;;;;;-143.84;100.00;45216.63;5112142;28;20777;-74
2022/12/01 00:23:08;;;;;;;22.80;11.17;;;;;;;-143.84;100.00;45212.84;5111516;28;20499;-74
2022/12/01 00:25:36;;;;;;;18.17;10.00;;;;;;;-143.84;100.00;45233.78;5111508;28;20478;-75
2022/12/01 00:28:03;;;;;;;13.87;9.63;;;;;;;-143.84;100.00;45224.25;5111607;28;20427;-74
2022/12/01 00:30:30;;;;;;;14.97;10.30;;;;;;;-143.84;100.00;45193.78;5093751;28;20442;-74
2022/12/01 00:32:59;;;;;;;14.70;10.23;;;;;;;-143.84;100.00;45252.81;5111169;28;20467;-74
2022/12/01 00:35:26;;;;;;;15.63;10.20;;;;;;;-143.84;100.00;45235.69;5111468;28;20437;-75
2022/12/01 00:37:54;;;;;;;15.13;10.90;;;;;;;-143.84;100.00;45226.16;5111446;28;20439;-74
2022/12/01 00:40:21;;;;;;;11.90;9.63;;;;;;;-143.84;100.00;45218.53;5110965;28;20439;-74
2022/12/01 00:42:50;;;;;;;16.10;10.43;;;;;;;-143.84;100.00;45229.97;5111261;28;20451;-74
2022/12/01 00:45:17;;;;;;;13.07;9.63;;;;;;;-143.84;99.93;45260.44;5092666;28;20444;-74
2022/12/01 00:47:44;;;;;;;15.97;9.10;;;;;;;-143.84;99.70;45228.06;5090982;28;20451;-74
2022/12/01 00:50:13;;;;;;;14.30;10.17;;;;;;;-143.84;99.83;45283.28;5091663;28;20432;-75
2022/12/01 00:52:40;;;;;;;13.73;10.37;;;;;;;-143.84;99.32;45254.72;5090808;28;21000;-75
2022/12/01 00:55:07;;;;;;;16.17;9.47;;;;;;;-143.84;99.40;45241.41;5091107;28;20424;-74
2022/12/01 00:57:34;;;;;;;12.47;8.73;;;;;;;-143.84;99.32;45260.44;5091027;28;20436;-74
2022/12/01 01:00:02;;;;;;;10.00;8.47;;;;;;;-143.84;99.40;45235.69;5090866;28;20497;-75
2022/12/01 01:02:29;;;;;;;9.70;7.60;;;;;;;-143.84;99.43;45239.50;5090918;28;20447;-74
2022/12/01 01:04:56;;;;;;;14.93;10.30;;;;;;;-143.84;99.39;45262.34;5090557;28;20432;-74
2022/12/01 01:07:24;;;;;;;14.77;9.53;;;;;;;-143.84;99.06;45269.97;5091292;28;20759;-74
2022/12/01 01:09:51;;;;;;;14.43;9.00;;;;;;;-143.84;98.96;45245.19;5090565;28;20435;-74
2022/12/01 01:12:18;;;;;;;13.40;9.80;;;;;;;-143.84;98.94;45264.25;5090625;28;20505;-74
2022/12/01 01:14:46;;;;;;;14.80;9.13;;;;;;;-143.84;98.87;45243.31;5090791;28;20471;-74
2022/12/01 01:17:13;;;;;;;12.40;9.17;;;;;;;-143.84;99.15;45233.78;5090668;28;20941;-75
2022/12/01 01:19:40;;;;;;;17.13;9.97;;;;;;;-143.84;98.75;45254.72;5090596;28;20493;-74
2022/12/01 01:22:07;;;;;;;11.83;9.80;;;;;;;-143.84;98.69;45260.44;5090857;28;20432;-74
2022/12/01 01:24:36;;;;;;;12.23;8.10;;;;;;;-143.84;98.54;45258.53;5090648;28;20451;-74
2022/12/01 01:27:04;;;;;;;12.03;9.40;;;;;;;-143.84;98.76;45252.81;5090430;28;20836;-74
2022/12/01 01:29:31;;;;;;;9.47;8.17;;;;;;;-143.84;98.90;45245.19;5090835;28;20565;-74
2022/12/01 01:31:59;;;;;;;10.47;8.60;;;;;;;-143.84;98.75;45262.34;5090758;28;20430;-75
2022/12/01 01:34:26;;;;;;;12.53;8.80;;;;;;;-143.84;98.84;45249.00;5090622;28;21195;-74
2022/12/01 01:36:53;;;;;;;10.77;8.47;;;;;;;-143.84;99.08;45256.63;5090716;28;20432;-74
2022/12/01 01:39:20;;;;;;;9.73;8.13;;;;;;;-143.84;98.92;45241.41;5090763;28;21123;-74
2022/12/01 01:41:48;;;;;;;9.50;7.40;;;;;;;-143.84;99.17;45275.66;5090827;28;20459;-75
2022/12/01 01:44:47;;;;;;;14.27;7.93;;;;;;;-143.84;99.22;45235.69;5090247;28;20448;-75
2022/12/01 01:47:15;;;;;;;10.17;7.33;;;;;;;-143.84;98.78;45271.88;5090073;28;20992;-74
2022/12/01 01:49:43;;;;;;;10.93;7.20;;;;;;;-143.84;98.63;45258.53;5090143;28;20435;-75
2022/12/01 01:52:10;;;;;;;10.37;7.30;;;;;;;-143.84;98.78;45243.31;5091014;28;20513;-75
2022/12/01 01:54:42;;;;;;;7.97;7.17;;;;;;;-143.84;98.74;45271.88;5094129;28;20483;-74
2022/12/01 01:57:15;;;;;;;8.50;6.00;;;;;;;-143.84;98.46;45273.78;5094202;28;20442;-74
2022/12/01 01:59:45;;;;;;;6.60;5.90;;;;;;;-143.84;98.32;45268.06;5094121;28;20440;-74
2022/12/01 02:02:13;;;;;;;6.40;5.57;;;;;;;-143.84;98.51;45268.06;5093793;28;20475;-74
2022/12/01 02:04:46;;;;;;;8.40;5.87;;;;;;;-143.84;98.78;45243.31;5093697;28;20458;-74
2022/12/01 02:07:17;;;;;;;7.60;6.60;;;;;;;-143.84;98.48;45268.06;5093942;28;20436;-74
2022/12/01 02:09:44;;;;;;;5.90;5.30;;;;;;;-143.84;98.49;45239.50;5093746;28;20439;-74
2022/12/01 02:12:24;;;;;;;5.83;5.23;;;;;;;-143.84;98.78;45273.78;5094079;28;20442;-74
2022/12/01 02:15:06;;;;;;;5.73;5.30;;;;;;;-143.84;98.46;45285.19;5093627;28;20483;-74
2022/12/01 02:17:40;;;;;;;5.90;5.30;;;;;;;-143.84;98.35;45289.00;5093531;28;20936;-74
2022/12/01 02:20:40;;;;;;;6.87;5.80;;;;;;;-143.84;98.40;45292.81;5093321;28;20852;-74
2022/12/01 02:23:30;;;;;;;6.43;5.60;;;;;;;-143.84;98.14;45271.88;5093357;28;20809;-74
2022/12/01 02:26:14;;;;;;;5.17;4.63;;;;;;;-143.84;98.63;45279.47;5093284;28;20488;-74
2022/12/01 02:28:57;;;;;;;6.10;5.60;;;;;;;-143.84;98.19;45269.97;5093851;28;20495;-74
2022/12/01 02:31:39;;;;;;;6.67;5.83;;;;;;;-143.84;98.19;45296.63;5093385;28;20920;-74
2022/12/01 02:34:13;;;;;;;5.80;5.20;;;;;;;-143.84;98.35;45260.44;5093571;28;20483;-74
2022/12/01 02:36:49;;;;;;;5.53;5.10;;;;;;;-143.84;98.69;45243.31;5093125;28;20440;-74
2022/12/01 02:39:22;;;;;;;5.60;5.13;;;;;;;-143.84;98.91;45273.78;5093363;28;20444;-74
2022/12/01 02:41:53;;;;;;;9.03;4.13;;;;;;;-143.84;98.60;45266.16;5093083;28;20524;-74
2022/12/01 02:44:26;;;;;;;4.67;4.27;;;;;;;-143.84;98.95;45264.25;5092977;28;20451;-74
2022/12/01 02:46:59;;;;;;;5.33;4.80;;;;;;;-143.84;98.97;45268.06;5092903;28;20432;-74
2022/12/01 02:49:31;;;;;;;5.33;4.80;;;;;;;-143.84;98.91;45279.47;5102611;28;20962;-74
2022/12/01 02:51:59;;;;;;;4.10;3.80;;;;;;;-143.84;99.07;45249.00;5113185;28;20586;-74
2022/12/01 02:54:31;;;;;;;5.67;5.10;;;;;;;-143.84;99.24;45264.25;5113293;28;20463;-74
2022/12/01 02:56:58;;;;;;;5.03;4.53;;;;;;;-143.84;99.38;45252.81;5113379;28;20442;-74
2022/12/01 02:59:25;;;;;;;6.33;4.67;;;;;;;-143.84;99.36;45256.63;5113135;28;20555;-74
2022/12/01 03:02:06;;;;;;;4.67;4.27;;;;;;;-143.84;99.08;45264.25;5113072;28;21219;-75
2022/12/01 03:04:50;;;;;;;5.13;4.63;;;;;;;-143.84;98.64;45258.53;5113187;28;20446;-74
2022/12/01 03:07:32;;;;;;;4.70;4.30;;;;;;;-143.84;98.83;45256.63;5112661;28;20827;-74
2022/12/01 03:10:08;;;;;;;5.10;4.60;;;;;;;-143.84;99.20;45296.63;5112057;28;20516;-75
2022/12/01 03:12:41;;;;;;;5.73;4.30;;;;;;;-143.84;99.03;45268.06;5113327;28;20424;-74
2022/12/01 03:15:14;;;;;;;4.83;4.37;;;;;;;-143.84;98.85;45277.56;5113118;28;20459;-75
2022/12/01 03:17:47;;;;;;;4.27;3.97;;;;;;;-143.84;98.99;45235.69;5112952;28;20501;-74
2022/12/01 03:20:22;;;;;;;4.33;4.00;;;;;;;-143.84;99.44;45269.97;5112627;28;20439;-74
2022/12/01 03:22:58;;;;;;;4.20;3.90;;;;;;;-143.84;99.50;45247.09;5112990;28;20439;-74
2022/12/01 03:25:27;;;;;;;3.53;3.30;;;;;;;-143.84;98.77;45241.41;5112717;28;20848;-74
2022/12/01 03:27:57;;;;;;;3.67;3.37;;;;;;;-143.84;99.30;45235.69;5112769;28;20481;-74
2022/12/01 03:30:25;;;;;;;3.90;3.60;;;;;;;-143.84;99.06;45268.06;5112797;28;21154;-74
2022/12/01 03:33:00;;;;;;;4.63;4.23;;;;;;;-143.84;99.39;45252.81;5112401;28;20850;-75
2022/12/01 03:35:32;;;;;;;4.57;4.17;;;;;;;-143.84;99.17;45258.53;5112442;28;20444;-74
2022/12/01 03:38:04;;;;;;;5.80;4.90;;;;;;;-143.84;99.38;45252.81;5112539;28;20481;-74
2022/12/01 03:40:36;;;;;;;5.87;4.13;;;;;;;-143.84;99.87;45258.53;5112665;28;20435;-74
2022/12/01 03:43:06;;;;;;;4.97;4.50;;;;;;;-143.84;99.52;45260.44;5112296;28;20446;-74
2022/12/01 03:45:40;;;;;;;3.93;3.63;;;;;;;-143.84;99.99;45231.88;5112104;28;20507;-74
2022/12/01 03:48:09;;;;;;;4.00;3.70;;;;;;;-143.84;99.92;45237.59;5112523;28;20436;-74
2022/12/01 03:50:44;;;;;;;4.63;4.23;;;;;;;-143.84;99.84;45220.44;5112404;28;20587;-74
2022/12/01 03:53:18;;;;;;;4.10;3.40;;;;;;;-143.84;99.67;45239.50;5112393;28;20431;-74
2022/12/01 03:55:51;;;;;;;3.73;3.53;;;;;;;-143.84;99.58;45262.34;5112165;28;20432;-75
2022/12/01 03:58:21;;;;;;;4.87;3.70;;;;;;;-143.84;99.92;45250.91;5112022;28;20442;-74
2022/12/01 04:00:52;;;;;;;4.03;3.73;;;;;;;-143.84;99.40;45256.63;5111935;28;20431;-74
2022/12/01 04:03:24;;;;;;;3.90;3.60;;;;;;;-143.84;99.71;45269.97;5109899;28;20878;-74
2022/12/01 04:05:52;;;;;;;4.40;4.00;;;;;;;-143.84;99.71;45254.72;5111643;28;20867;-73
2022/12/01 04:08:19;;;;;;;3.67;3.37;;;;;;;-143.84;99.61;45309.94;5111789;28;20484;-75
2022/12/01 04:10:46;;;;;;;3.90;3.50;;;;;;;-143.84;99.68;45247.09;5111499;28;20436;-74
2022/12/01 04:13:15;;;;;;;4.10;3.80;;;;;;;-143.84;99.17;45239.50;5111387;28;20444;-74
2022/12/01 04:15:42;;;;;;;3.73;3.43;;;;;;;-143.84;99.82;45269.97;5110683;28;20546;-74
2022/12/01 04:18:09;;;;;;;4.00;3.60;;;;;;;-143.84;99.53;45222.34;5111031;28;20443;-74
2022/12/01 04:20:38;;;;;;;3.83;3.43;;;;;;;-143.84;99.34;45273.78;5111464;28;20848;-75
2022/12/01 04:23:05;;;;;;;3.93;3.63;;;;;;;-143.84;99.21;45243.31;5111383;28;20448;-75
2022/12/01 04:25:32;;;;;;;4.00;3.63;;;;;;;-143.84;99.23;45258.53;5111291;28;20884;-74
2022/12/01 04:27:59;;;;;;;3.27;2.97;;;;;;;-143.84;99.08;45252.81;5111543;28;20435;-74
2022/12/01 04:30:26;;;;;;;6.67;4.33;;;;;;;-143.84;99.16;45239.50;5110879;28;20468;-74
2022/12/01 04:32:53;;;;;;;7.13;4.53;;;;;;;-143.84;99.43;45262.34;5111507;28;20496;-74
2022/12/01 04:35:20;;;;;;;3.40;3.20;;;;;;;-143.84;99.00;45250.91;5110753;28;20467;-75
2022/12/01 04:37:49;;;;;;;3.80;3.50;;;;;;;-143.84;99.20;45258.53;5111199;28;20501;-76
2022/12/01 04:40:17;;;;;;;3.67;3.37;;;;;;;-143.84;99.00;45228.06;5111652;28;20439;-73
2022/12/01 04:42:44;;;;;;;4.47;4.07;;;;;;;-143.84;98.70;45273.78;5110994;28;20445;-72
2022/12/01 04:45:12;;;;;;;4.30;3.50;;;;;;;-143.84;98.63;45260.44;5110654;28;20435;-74
2022/12/01 04:47:39;;;;;;;4.30;3.90;;;;;;;-143.84;98.83;45271.88;5110895;28;20852;-74
2022/12/01 04:50:07;;;;;;;3.67;3.37;;;;;;;-143.84;98.92;45235.69;5110560;28;20438;-74
2022/12/01 04:52:37;;;;;;;3.40;3.07;;;;;;;-143.84;98.80;45277.56;5110203;28;20459;-74
2022/12/01 04:55:07;;;;;;;3.30;2.70;;;;;;;-143.84;98.83;45250.91;5111255;28;20482;-74
2022/12/01 04:57:34;;;;;;;2.97;2.77;;;;;;;-143.84;99.03;45268.06;5110876;28;20445;-74
2022/12/01 05:00:02;;;;;;;4.00;3.63;;;;;;;-143.84;98.61;45247.09;5110807;28;20828;-74
2022/12/01 05:02:29;;;;;;;3.37;3.17;;;;;;;-143.84;98.97;45266.16;5110298;28;20472;-74
2022/12/01 05:04:56;;;;;;;3.60;3.10;;;;;;;-143.84;98.58;45254.72;5110241;28;20428;-74
2022/12/01 05:07:23;;;;;;;3.87;3.57;;;;;;;-143.84;99.29;45266.16;5110849;28;20437;-74
2022/12/01 05:09:50;;;;;;;3.30;3.10;;;;;;;-143.84;99.37;45264.25;5110592;28;20849;-75
2022/12/01 05:12:19;;;;;;;3.50;3.20;;;;;;;-143.84;99.45;45269.97;5110683;28;21145;-74
2022/12/01 05:14:46;;;;;;;6.17;3.10;;;;;;;-143.84;99.46;45260.44;5110757;28;20473;-74
2022/12/01 05:17:13;;;;;;;4.50;4.07;;;;;;;-143.84;99.42;45260.44;5110345;28;20431;-75
2022/12/01 05:22:25;;;;;;;3.77;3.37;;;;;;;-143.84;99.77;45249.00;5110469;28;20908;-74
2022/12/01 05:24:52;;;;;;;4.20;3.80;;;;;;;-143.84;99.68;45268.06;5110702;28;20455;-74
2022/12/01 05:27:21;;;;;;;8.43;5.30;;;;;;;-143.84;99.67;45228.06;5110934;28;20531;-74
2022/12/01 05:29:48;;;;;;;3.83;3.50;;;;;;;-143.84;100.00;45245.19;5114915;28;20440;-74
2022/12/01 05:32:15;;;;;;;4.20;3.80;;;;;;;-143.84;100.00;45241.41;5115017;28;20437;-74
2022/12/01 05:34:42;;;;;;;5.40;4.23;;;;;;;-143.84;100.00;45212.84;5114008;28;20471;-75
2022/12/01 05:37:09;;;;;;;4.40;4.00;;;;;;;-143.84;100.00;45243.31;5114109;28;20439;-75
2022/12/01 05:39:36;;;;;;;4.23;3.80;;;;;;;-143.84;100.00;45189.97;5113766;28;20431;-77
2022/12/01 05:42:04;;;;;;;5.20;3.00;;;;;;;-143.84;100.00;45226.16;5114036;28;20444;-74
2022/12/01 05:44:32;;;;;;;3.00;2.80;;;;;;;-143.84;99.88;45247.09;5114658;28;20523;-74
2022/12/01 05:46:59;;;;;;;3.43;3.13;;;;;;;-143.84;99.72;45222.34;5114283;28;20432;-73
2022/12/01 05:49:26;;;;;;;3.00;2.70;;;;;;;-143.84;100.00;45254.72;5113607;28;20439;-75
2022/12/01 05:51:53;;;;;;;4.07;3.70;;;;;;;-143.84;100.00;45262.34;5114838;28;20419;-74
2022/12/01 05:54:21;;;;;;;10.33;4.37;;;;;;;-143.84;100.00;45243.31;5114119;28;20964;-72
2022/12/01 05:56:48;;;;;;;9.00;3.70;;;;;;;-143.84;100.00;45207.13;5113513;28;20427;-72
2022/12/01 05:59:15;;;;;;;6.10;3.30;;;;;;;-143.84;100.00;45224.25;5113858;28;20481;-72
2022/12/01 06:01:44;;;;;;;3.47;3.17;;;;;;;-143.84;100.00;45197.59;5113593;28;20435;-72
2022/12/01 06:04:11;;;;;;;7.70;4.57;;;;;;;-143.84;100.00;45195.69;5113169;28;20503;-73
2022/12/01 06:06:38;;;;;;;5.87;3.13;;;;;;;-143.84;100.00;45184.25;5113897;28;20480;-73
2022/12/01 06:09:07;;;;;;;3.27;3.03;;;;;;;-143.84;100.00;45201.41;5113770;28;20455;-73
2022/12/01 06:11:34;;;;;;;3.53;3.23;;;;;;;-143.84;100.00;45199.50;5113524;28;21036;-73
2022/12/01 06:14:01;;;;;;;3.90;3.47;;;;;;;-143.84;100.00;45201.41;5113651;28;20439;-72
2022/12/01 06:16:28;;;;;;;5.20;3.90;;;;;;;-143.84;100.00;45207.13;5113343;28;20440;-72
2022/12/01 06:18:57;;;;;;;4.00;3.60;;;;;;;-143.84;100.00;45186.16;5112615;28;20920;-72
2022/12/01 06:21:24;;;;;;;3.77;3.50;;;;;;;-143.84;100.00;45197.59;5113445;28;20484;-72
2022/12/01 06:23:51;;;;;;;4.47;3.83;;;;;;;-143.84;100.00;45150.00;5113825;28;20497;-72
2022/12/01 06:26:18;;;;;;;4.70;4.23;;;;;;;-143.84;100.00;45174.75;5113344;28;20487;-73
2022/12/01 06:28:45;;;;;;;4.80;3.90;;;;;;;-143.84;100.00;45201.41;5113174;28;20499;-72
2022/12/01 06:31:13;;;;;;;4.30;3.90;;;;;;;-143.84;100.00;45178.56;5112861;28;20442;-72
2022/12/01 06:33:40;;;;;;;5.77;3.70;;;;;;;-143.84;100.00;45193.78;5112232;28;20531;-72
2022/12/01 06:36:10;;;;;;;4.17;3.50;;;;;;;-143.84;100.00;45172.84;5111777;28;20734;-72
2022/12/01 06:38:37;;;;;;;4.43;3.80;;;;;;;-143.84;100.00;45191.88;5111045;28;20440;-72
2022/12/01 06:41:05;;;;;;;4.13;3.33;;;;;;;-143.84;100.00;45193.78;5111945;28;20851;-72
2022/12/01 06:43:32;;;;;;;4.83;3.60;;;;;;;-143.84;100.00;45182.38;5111577;28;20439;-72
2022/12/01 06:45:59;;;;;;;4.40;4.00;;;;;;;-143.84;100.00;45205.22;5111479;28;21007;-72
2022/12/01 06:48:26;;;;;;;8.27;3.90;;;;;;;-143.84;100.00;45203.31;5111391;28;20438;-72
2022/12/01 06:50:57;;;;;;;3.73;3.43;;;;;;;-143.84;100.00;45189.97;5111532;28;20557;-72
2022/12/01 06:53:26;;;;;;;4.03;3.63;;;;;;;-143.84;100.00;45186.16;5111515;28;20440;-72
2022/12/01 06:55:53;;;;;;;4.10;3.70;;;;;;;-143.84;100.00;45209.03;5111452;28;21004;-72
2022/12/01 06:58:20;;;;;;;3.87;3.30;;;;;;;-143.84;100.00;45180.47;5111442;28;20471;-72
2022/12/01 07:00:47;;;;;;;4.00;3.70;;;;;;;-143.84;100.00;45176.66;5111486;28;20444;-72
2022/12/01 07:03:14;;;;;;;8.40;3.50;;;;;;;-143.84;100.00;45220.44;5111574;28;20449;-72
2022/12/01 07:05:41;;;;;;;4.77;3.60;;;;;;;-143.84;100.00;45186.16;5112278;28;20894;-72
2022/12/01 07:08:08;;;;;;;3.47;3.17;;;;;;;-143.84;100.00;45191.88;5112222;28;20489;-72
2022/12/01 07:10:37;;;;;;;3.90;3.50;;;;;;;-143.84;100.00;45222.34;5112135;28;20435;-72
2022/12/01 07:13:04;;;;;;;4.10;3.80;;;;;;;-143.84;100.00;45210.94;5111948;28;20443;-72
2022/12/01 07:15:31;;;;;;;3.83;3.53;;;;;;;-143.84;100.00;45214.72;5112265;28;20856;-72
2022/12/01 07:17:58;;;;;;;3.40;3.13;;;;;;;-143.84;100.00;45188.06;5111432;28;20442;-72
2022/12/01 07:20:25;;;;;;;5.07;4.37;;;;;;;-143.84;100.00;45193.78;5111816;28;20876;-72
2022/12/01 07:22:54;;;;;;;5.03;4.53;;;;;;;-143.84;100.00;45193.78;5111799;28;20497;-72
2022/12/01 07:25:21;;;;;;;4.27;3.97;;;;;;;-143.84;100.00;45189.97;5111669;28;20478;-72
2022/12/01 07:27:50;;;;;;;4.73;3.53;;;;;;;-143.84;100.00;45228.06;5111948;28;20513;-72
2022/12/01 07:30:17;;;;;;;16.53;4.60;;;;;;;-143.84;100.00;45218.53;5112242;28;20435;-72
2022/12/01 07:32:44;;;;;;;4.43;3.70;;;;;;;-143.84;100.00;45205.22;5111791;28;20423;-72
2022/12/01 07:35:11;;;;;;;4.43;3.77;;;;;;;-143.84;100.00;45203.31;5111540;28;20478;-72
2022/12/01 07:37:39;;;;;;;7.50;3.70;;;;;;;-143.84;100.00;45172.84;5111648;28;20431;-72
2022/12/01 07:40:08;;;;;;;6.70;4.13;;;;;;;-143.84;100.00;45182.38;5111532;28;20430;-72
2022/12/01 07:42:35;;;;;;;5.03;4.03;;;;;;;-143.84;100.00;45195.69;5111556;28;20575;-72
2022/12/01 07:45:04;;;;;;;3.90;3.60;;;;;;;-143.84;100.00;45199.50;5111387;28;20453;-72
2022/12/01 07:47:32;;;;;;;4.13;3.70;;;;;;;-143.84;100.00;45209.03;5111300;28;20440;-73
2022/12/01 07:49:59;;;;;;;4.00;3.70;;;;;;;-143.84;100.00;45212.84;5110691;28;20491;-72
2022/12/01 07:52:26;;;;;;;3.47;3.17;;;;;;;-143.84;100.00;45182.38;5111141;28;20429;-72
2022/12/01 07:54:53;;;;;;;4.07;3.50;;;;;;;-143.84;100.00;45197.59;5110903;28;20478;-73
2022/12/01 07:57:22;;;;;;;3.87;3.47;;;;;;;-143.84;100.00;45209.03;5110885;28;20436;-74
2022/12/01 07:59:49;;;;;;;5.00;4.20;;;;;;;-143.84;100.00;45210.94;5109820;28;20444;-74
2022/12/01 08:02:18;;;;;;;4.13;3.70;;;;;;;-143.84;100.00;45186.16;5109122;28;20492;-74
2022/12/01 08:04:45;;;;;;;4.53;4.10;;;;;;;-143.84;100.00;45172.84;5110346;28;20434;-74
2022/12/01 08:07:12;;;;;;;5.30;3.57;;;;;;;-143.84;100.00;45212.84;5110385;28;20447;-74
2022/12/01 08:09:39;;;;;;;4.17;3.87;;;;;;;-143.84;100.00;45199.50;5110418;28;20436;-74
2022/12/01 08:12:07;;;;;;;5.53;3.03;;;;;;;-143.84;100.00;45172.84;5110118;28;20432;-74
2022/12/01 08:14:34;;;;;;;8.10;4.00;;;;;;;-143.84;100.00;45193.78;5109914;28;20440;-74
2022/12/01 08:17:01;;;;;;;4.60;2.93;;;;;;;-143.84;100.00;45172.84;5110289;28;20437;-74
2022/12/01 08:19:30;;;;;;;4.20;3.90;;;;;;;-143.84;100.00;45209.03;5109984;28;20435;-74
2022/12/01 08:21:57;;;;;;;3.70;3.33;;;;;;;-143.84;100.00;45174.75;5109905;28;20445;-74
2022/12/01 08:24:24;;;;;;;3.43;3.13;;;;;;;-143.84;100.00;45186.16;5110104;28;20445;-74
2022/12/01 08:26:51;;;;;;;3.73;3.00;;;;;;;-143.84;100.00;45176.66;5109587;28;20529;-74
2022/12/01 08:29:19;;;;;;;4.40;4.00;;;;;;;-143.84;100.00;45193.78;5109653;28;20445;-74
2022/12/01 08:31:46;;;;;;;5.90;3.80;;;;;;;-143.84;100.00;45167.13;5110008;28;20511;-74
2022/12/01 08:34:13;;;;;;;4.03;3.73;;;;;;;-143.84;100.00;45163.31;5109707;28;20446;-74
2022/12/01 08:36:41;;;;;;;6.77;3.47;;;;;;;-143.84;100.00;45180.47;5109861;28;20487;-74
2022/12/01 08:39:09;;;;;;;3.50;3.30;;;;;;;-143.84;100.00;45157.59;5109446;28;20503;-74
2022/12/01 08:41:36;;;;;;;3.50;3.20;;;;;;;-143.84;100.00;45130.94;5109981;28;20443;-75
2022/12/01 08:44:04;;;;;;;4.00;3.47;;;;;;;-143.84;100.00;45134.75;5109733;28;20487;-74
2022/12/01 08:46:33;;;;;;;4.80;3.90;;;;;;;-143.84;100.00;45140.47;5109570;28;20476;-74
2022/12/01 08:49:00;;;;;;;3.73;3.43;;;;;;;-143.84;100.00;45157.59;5109613;28;20842;-74
2022/12/01 08:51:28;;;;;;;4.73;3.83;;;;;;;-143.84;100.00;45127.13;5109499;28;20805;-74
2022/12/01 08:53:58;;;;;;;3.33;3.13;;;;;;;-143.84;100.00;45150.00;5109447;28;20926;-74
2022/12/01 08:56:27;;;;;;;9.17;4.10;;;;;;;-143.84;100.00;45178.56;5109439;28;20497;-75
2022/12/01 08:58:55;;;;;;;3.70;3.40;;;;;;;-143.84;100.00;45195.69;5109519;28;20423;-75
2022/12/01 09:01:24;;;;;;;4.23;3.83;;;;;;;-143.84;100.00;45172.84;5109478;28;20846;-74
2022/12/01 09:04:04;;;;;;;3.70;3.40;;;;;;;-143.84;100.00;45172.84;5109386;28;20481;-74
2022/12/01 09:06:32;;;;;;;3.80;3.40;;;;;;;-143.84;100.00;45184.25;5109060;28;20427;-74
2022/12/01 09:09:01;;;;;;;4.90;3.70;;;;;;;-143.84;100.00;45140.47;5109343;28;20457;-74
2022/12/01 09:11:28;;;;;;;6.37;3.93;;;;;;;-143.84;100.00;45197.59;5109410;28;20494;-75
2022/12/01 09:13:55;;;;;;;5.13;4.20;;;;;;;-143.84;100.00;45172.84;5109247;28;20435;-75
2022/12/01 09:16:22;;;;;;;4.73;4.17;;;;;;;-143.84;100.00;45165.22;5109306;28;20474;-76
2022/12/01 09:18:49;;;;;;;5.27;4.27;;;;;;;-143.84;100.00;45193.78;5109239;28;20463;-75
2022/12/01 09:21:18;;;;;;;11.03;4.77;;;;;;;-143.84;100.00;45189.97;5109202;28;20439;-75
2022/12/01 09:23:46;;;;;;;6.10;4.83;;;;;;;-143.84;100.00;45151.91;5109461;28;20447;-75
2022/12/01 09:26:17;;;;;;;7.87;4.70;;;;;;;-143.84;100.00;45184.25;5109256;28;20475;-75
2022/12/01 09:28:45;;;;;;;5.77;5.20;;;;;;;-143.84;99.92;45193.78;5109044;28;20457;-75
2022/12/01 09:31:13;;;;;;;8.63;5.33;;;;;;;-143.84;99.84;45170.94;5109019;28;20473;-75
2022/12/01 09:33:41;;;;;;;7.50;5.63;;;;;;;-143.84;100.00;45201.41;5109714;28;20431;-75
2022/12/01 09:36:09;;;;;;;10.83;6.50;;;;;;;-143.84;99.95;45216.63;5109062;28;21187;-75
2022/12/01 09:38:38;;;;;;;6.10;5.50;;;;;;;-143.84;100.00;45203.31;5108839;28;20438;-75
2022/12/01 09:41:08;;;;;;;5.87;5.00;;;;;;;-143.84;100.00;45186.16;5109079;28;20496;-75
2022/12/01 09:43:40;;;;;;;6.03;5.20;;;;;;;-143.84;99.89;45207.13;5108881;28;20439;-75
2022/12/01 09:46:15;;;;;;;5.60;4.73;;;;;;;-143.84;99.78;45199.50;5109319;28;20450;-75
2022/12/01 09:48:44;;;;;;;9.40;5.17;;;;;;;-143.84;99.71;45214.72;5109130;28;20441;-75
2022/12/01 09:51:14;;;;;;;9.00;5.47;;;;;;;-143.84;99.47;45207.13;5109205;28;20443;-75
2022/12/01 09:53:42;;;;;;;10.00;6.00;;;;;;;-143.84;99.80;45176.66;5108843;28;21009;-75
2022/12/01 09:56:20;;;;;;;9.00;6.10;;;;;;;-143.84;99.79;45201.41;5093682;28;20483;-74
2022/12/01 09:58:51;;;;;;;9.63;5.37;;;;;;;-143.84;99.81;45178.56;5089330;28;20432;-75
2022/12/01 10:01:22;;;;;;;10.30;6.43;;;;;;;-143.84;99.93;45193.78;5089897;28;20500;-75
2022/12/01 10:03:57;;;;;;;6.20;5.33;;;;;;;-143.84;100.00;45186.16;5088896;28;20432;-75
2022/12/01 10:06:34;;;;;;;14.83;6.33;;;;;;;-143.84;100.00;45203.31;5088353;28;21279;-75
2022/12/01 10:09:08;;;;;;;18.10;6.67;;;;;;;-143.84;99.83;45195.69;5087815;28;20432;-75
2022/12/01 10:11:39;;;;;;;7.33;6.10;;;;;;;-143.84;99.93;45209.03;5088769;28;20497;-75
2022/12/01 10:14:13;;;;;;;7.43;6.40;;;;;;;-143.84;99.83;45205.22;5090417;28;20423;-75
2022/12/01 10:16:47;;;;;;;9.77;6.93;;;;;;;-143.84;99.95;45189.97;5092261;28;20556;-75
2022/12/01 10:19:23;;;;;;;9.97;6.90;;;;;;;-143.84;99.75;45188.06;5091933;28;20443;-75
2022/12/01 10:22:04;;;;;;;11.10;6.87;;;;;;;-143.84;99.65;45205.22;5091838;28;20487;-75
2022/12/01 10:24:47;;;;;;;9.10;6.80;;;;;;;-143.84;99.75;45222.34;5091392;28;20466;-75
2022/12/01 10:27:25;;;;;;;12.20;7.70;;;;;;;-143.84;99.75;45189.97;5091814;28;20482;-75
2022/12/01 10:30:03;;;;;;;14.90;8.47;;;;;;;-143.84;99.82;45231.88;5091976;28;20505;-75
2022/12/01 10:32:38;;;;;;;11.60;7.50;;;;;;;-143.84;99.89;45191.88;5092012;28;20948;-75
2022/12/01 10:35:06;;;;;;;12.50;7.53;;;;;;;-143.84;99.57;45186.16;5092205;28;20446;-75
2022/12/01 10:37:33;;;;;;;11.93;7.63;;;;;;;-143.84;99.67;45188.06;5092032;28;21013;-74
2022/12/01 10:40:00;;;;;;;18.10;9.07;;;;;;;-143.84;99.74;45216.63;5091997;28;20941;-74
2022/12/01 10:42:32;;;;;;;15.30;8.33;;;;;;;-143.84;100.00;45153.81;5091912;28;20451;-75
2022/12/01 10:45:04;;;;;;;13.37;7.40;;;;;;;-143.84;100.00;45159.50;5092085;28;20443;-75
2022/12/01 10:47:32;;;;;;;12.87;7.63;;;;;;;-143.84;100.00;45161.41;5092234;28;20443;-74
2022/12/01 10:49:59;;;;;;;9.53;7.20;;;;;;;-143.84;100.00;45203.31;5092269;28;20961;-75
2022/12/01 10:52:35;;;;;;;14.20;7.03;;;;;;;-143.84;100.00;45174.75;5092071;28;20443;-74
2022/12/01 10:55:05;;;;;;;8.17;6.97;;;;;;;-143.84;100.00;45176.66;5091635;28;20435;-73
2022/12/01 10:57:32;;;;;;;11.23;7.00;;;;;;;-143.84;100.00;45186.16;5091340;28;20482;-74
2022/12/01 11:00:07;;;;;;;10.07;5.87;;;;;;;-143.84;100.00;45132.84;5092115;28;20497;-75
2022/12/01 11:02:35;;;;;;;8.40;5.43;;;;;;;-143.84;100.00;45146.19;5092982;28;20439;-73
2022/12/01 11:05:06;;;;;;;6.20;5.13;;;;;;;-143.84;100.00;45174.75;5092350;28;20448;-74
2022/12/01 11:07:35;;;;;;;7.30;6.07;;;;;;;-143.84;100.00;45113.81;5092116;28;21208;-73
2022/12/01 11:10:15;;;;;;;8.37;5.23;;;;;;;-143.84;100.00;45136.66;5091019;28;20431;-73
2022/12/01 11:12:43;;;;;;;8.50;6.80;;;;;;;-143.84;100.00;45117.63;5091037;28;20448;-73
2022/12/01 11:15:22;;;;;;;7.77;6.43;;;;;;;-143.84;100.00;45125.22;5090886;28;20447;-73
2022/12/01 11:17:58;;;;;;;13.63;5.80;;;;;;;-143.84;100.00;45159.50;5091263;28;20840;-73
2022/12/01 11:20:31;;;;;;;11.13;5.00;;;;;;;-143.84;100.00;45130.94;5090656;28;20481;-73
2022/12/01 11:23:24;;;;;;;6.33;5.07;;;;;;;-143.84;100.00;45140.47;5090814;28;20439;-73
2022/12/01 11:26:05;;;;;;;7.43;5.00;;;;;;;-143.84;100.00;45144.28;5090521;28;20482;-73